Northport, Nebraska
Current Conditions -  °F | °C
As of 2:53 AM on Sunday 23 Nov 2014 (Local Time) from KAIA Reporting Station
Broken Clouds Broken Clouds  
Wind Chill: 29°   Ceiling: 8500
Heat Index: 38°   Visibility: 10mi
Dew Point: 21°   Wind: 17mph
Humidity: 51%   Direction: 330°NNW
Pressure: 29.63"   Gusts: NA
Location:  41.7379°N, 102.935°W
Report Text: KAIA 230953Z AUTO 33015KT 10SM SCT075 BKN085 03/M06 A2963 RMK AO2 SLP025 T00331061
Loading
Personal Weather Stations






























Interactive Weather Map New forecast layout! Learn more

10-Day Weather Forecast

Advertisements
Track Severe Weather on mobile